• Join FlightAware (Why Join?)
  • Login
  • US Flag 
02:49AM EST


 

Airport Tracker/Info


-or-


 

Live Flight TrackerFlight Track Log ✈ CPT8773 ✈ 22-Jul-2013 ✈ KCPR - KCOD

Flight Track Log - Related Links

Times and Time Zones

All times are in EDT time to prevent confusion due to time zone crossing. See the CPT8773 flight status page for this flight to view local times or setup timezone preferences in your user account.

Time Position Orientation Groundspeed Altitude Reporting Facility
EDT Latitude Longitude Course Direction KTS MPH feet Rate Location/Type
09:01AM 42.9567 -106.5183 308° West 167 192 6,900  Level Denver Center
09:02AM 42.9886 -106.5364 338° Northwest 134 154 7,700 660 Climbing Denver Center
09:03AM 43.0225 -106.5517 342° North 134 154 8,300 540 Climbing Denver Center
09:04AM 43.0614 -106.5717 339° North 134 154 8,900 600 Climbing Denver Center
09:05AM 43.0884 -106.2755 308° West  Level FlightAware Approximate
09:05AM 43.0956 -106.5867 342° North 134 154 9,600  Level Denver Center
09:06AM 43.1126 -106.3178 308° West  Level FlightAware Approximate
09:06AM 43.1314 -106.6028 342° North 128 147 10,200  Level Denver Center
09:07AM 43.1647 -106.6156 344° North 128 147 10,700 540 Climbing Denver Center
09:08AM 43.2031 -106.6297 345° North 129 148 11,300 540 Climbing Denver Center
09:09AM 43.2347 -106.6450 341° North 127 146 11,800 300 Climbing Denver Center
09:10AM 43.2689 -106.6564 346° North 129 148 12,000 60 Climbing Denver Center
09:11AM 43.3094 -106.6875 331° Northwest 148 170 12,000  Level Denver Center
09:12AM 43.3361 -106.7411 304° West 150 173 12,000  Level Denver Center
09:13AM 43.3617 -106.7942 304° West 149 171 12,000  Level Denver Center
09:14AM 43.3856 -106.8392 306° West 150 173 12,000  Level Denver Center
09:15AM 43.4117 -106.8900 305° West 150 173 12,000  Level Denver Center
09:16AM 43.4358 -106.9367 306° West 150 173 12,000  Level Denver Center
09:17AM 43.4617 -106.9811 309° West 150 173 12,000  Level Denver Center
09:18AM 43.4847 -107.0272 305° West 147 169 12,000  Level Denver Center
09:19AM 43.5089 -107.0742 305° West 150 173 12,000  Level Denver Center
09:20AM 43.5325 -107.1203 305° West 149 171 12,100  Climbing Denver Center
09:21AM 43.5497 -107.1558 304° West 142 163 12,000 -60 Descending Salt Lake Center
09:22AM 43.5722 -107.2031 303° West 146 168 12,000  Level Salt Lake Center
09:23AM 43.5969 -107.2464 308° West 144 166 12,000  Level Salt Lake Center
09:24AM 43.6192 -107.2950 302° West 147 169 12,000  Level Salt Lake Center
09:25AM 43.6433 -107.3383 308° West 144 166 12,000  Level Salt Lake Center
09:26AM 43.6678 -107.3853 306° West 149 171 12,000  Level Salt Lake Center
09:27AM 43.6928 -107.4322 306° West 151 174 12,000  Level Salt Lake Center
09:28AM 43.7172 -107.4794 306° West 151 174 12,000  Level Salt Lake Center
09:29AM 43.7406 -107.5250 305° West 149 171 12,000  Level Salt Lake Center
09:30AM 43.7644 -107.5711 306° West 148 170 12,000  Level Salt Lake Center
09:31AM 43.7942 -107.6294 305° West 150 173 12,000  Level Salt Lake Center
09:32AM 43.8183 -107.6761 306° West 151 174 12,000  Level Salt Lake Center
09:33AM 43.8428 -107.7217 307° West 150 173 12,000  Level Salt Lake Center
09:34AM 43.8667 -107.7675 306° West 148 170 12,000  Level Salt Lake Center
09:35AM 43.8917 -107.8139 307° West 149 171 12,000  Level Salt Lake Center
09:36AM 43.9156 -107.8628 304° West 150 173 12,000  Level Salt Lake Center
09:38AM 43.9639 -107.9575 305° West 151 174 12,000 -180 Level Salt Lake Center
09:39AM 43.9892 -108.0042 307° West 151 174 11,600 -480 Descending Salt Lake Center
09:40AM 44.0139 -108.0503 307° West 151 174 11,100 -540 Descending Salt Lake Center
09:41AM 44.0456 -108.1089 307° West 153 176 10,600 -360 Descending Salt Lake Center
09:43AM 44.0760 -108.1693 305° West  Level FlightAware Approximate
09:43AM 44.0956 -108.2067 305° West 155 178 10,100  Level Salt Lake Center
09:44AM 44.1192 -108.2519 306° West 151 174 10,100  Level Salt Lake Center
09:45AM 44.1447 -108.2967 309° West 149 171 10,100  Level Salt Lake Center
09:46AM 44.1689 -108.3408 307° West 147 169 10,100  Level Salt Lake Center
09:47AM 44.1931 -108.3875 306° West 147 169 10,100  Level Salt Lake Center
09:48AM 44.2181 -108.4342 307° West 148 170 10,100  Level Salt Lake Center
09:49AM 44.2425 -108.4803 307° West 149 171 10,100  Level Salt Lake Center
09:50AM 44.2678 -108.5269 307° West 149 171 10,100  Level Salt Lake Center
09:51AM 44.2992 -108.5822 308° West 150 173 10,100  Level Salt Lake Center
09:53AM 44.3239 -108.6300 306° West 151 174 10,100  Level Salt Lake Center